sensor_id;sensor_type;location;lat;lon;timestamp;P1;durP1;ratioP1;P2;durP2;ratioP2
25972;SDS011;13765;51.166;4.466;2022-10-26T00:00:25;8.45;;;2.38;;
25972;SDS011;13765;51.166;4.466;2022-10-26T00:02:54;7.57;;;2.50;;
25972;SDS011;13765;51.166;4.466;2022-10-26T00:05:22;8.32;;;2.55;;
25972;SDS011;13765;51.166;4.466;2022-10-26T00:07:49;7.78;;;2.58;;
25972;SDS011;13765;51.166;4.466;2022-10-26T00:10:17;17.90;;;3.28;;
25972;SDS011;13765;51.166;4.466;2022-10-26T00:12:48;8.82;;;2.80;;
25972;SDS011;13765;51.166;4.466;2022-10-26T00:15:15;8.90;;;2.97;;
25972;SDS011;13765;51.166;4.466;2022-10-26T00:17:42;7.35;;;2.70;;
25972;SDS011;13765;51.166;4.466;2022-10-26T00:20:08;7.80;;;2.50;;
25972;SDS011;13765;51.166;4.466;2022-10-26T00:22:34;8.05;;;2.30;;
25972;SDS011;13765;51.166;4.466;2022-10-26T00:25:04;8.45;;;2.60;;
25972;SDS011;13765;51.166;4.466;2022-10-26T00:27:31;16.52;;;3.30;;
25972;SDS011;13765;51.166;4.466;2022-10-26T00:30:00;6.32;;;2.28;;
25972;SDS011;13765;51.166;4.466;2022-10-26T00:32:26;11.70;;;3.38;;
25972;SDS011;13765;51.166;4.466;2022-10-26T00:34:53;14.65;;;2.95;;
25972;SDS011;13765;51.166;4.466;2022-10-26T00:37:18;5.25;;;2.50;;
25972;SDS011;13765;51.166;4.466;2022-10-26T00:39:46;12.02;;;2.22;;
25972;SDS011;13765;51.166;4.466;2022-10-26T00:42:18;8.50;;;2.20;;
25972;SDS011;13765;51.166;4.466;2022-10-26T00:49:51;4.63;;;1.90;;
25972;SDS011;13765;51.166;4.466;2022-10-26T00:52:22;9.50;;;3.22;;
25972;SDS011;13765;51.166;4.466;2022-10-26T00:54:51;10.27;;;2.90;;
25972;SDS011;13765;51.166;4.466;2022-10-26T00:57:18;11.13;;;2.38;;
25972;SDS011;13765;51.166;4.466;2022-10-26T00:59:46;6.78;;;2.17;;
25972;SDS011;13765;51.166;4.466;2022-10-26T01:02:13;14.43;;;2.55;;
25972;SDS011;13765;51.166;4.466;2022-10-26T01:04:41;6.10;;;2.22;;
25972;SDS011;13765;51.166;4.466;2022-10-26T01:07:10;13.32;;;3.10;;
25972;SDS011;13765;51.166;4.466;2022-10-26T01:09:36;9.43;;;2.75;;
25972;SDS011;13765;51.166;4.466;2022-10-26T01:12:07;13.95;;;2.47;;
25972;SDS011;13765;51.166;4.466;2022-10-26T01:14:33;9.35;;;2.95;;
25972;SDS011;13765;51.166;4.466;2022-10-26T01:23:00;10.38;;;2.78;;
25972;SDS011;13765;51.166;4.466;2022-10-26T01:31:13;8.30;;;2.00;;
25972;SDS011;13765;51.166;4.466;2022-10-26T01:33:49;7.20;;;2.33;;
25972;SDS011;13765;51.166;4.466;2022-10-26T01:36:31;11.68;;;2.53;;
25972;SDS011;13765;51.166;4.466;2022-10-26T01:39:18;5.32;;;2.22;;
25972;SDS011;13765;51.166;4.466;2022-10-26T01:42:02;5.90;;;2.60;;
25972;SDS011;13765;51.166;4.466;2022-10-26T01:44:35;8.20;;;2.75;;
25972;SDS011;13765;51.166;4.466;2022-10-26T01:47:06;3.55;;;1.77;;
25972;SDS011;13765;51.166;4.466;2022-10-26T01:49:44;5.70;;;2.13;;
25972;SDS011;13765;51.166;4.466;2022-10-26T01:52:17;6.95;;;2.67;;
25972;SDS011;13765;51.166;4.466;2022-10-26T01:54:44;8.27;;;2.13;;
25972;SDS011;13765;51.166;4.466;2022-10-26T01:57:10;6.18;;;2.30;;
25972;SDS011;13765;51.166;4.466;2022-10-26T02:04:50;3.85;;;1.95;;
25972;SDS011;13765;51.166;4.466;2022-10-26T02:07:36;4.97;;;2.05;;
25972;SDS011;13765;51.166;4.466;2022-10-26T02:18:17;7.28;;;2.15;;
25972;SDS011;13765;51.166;4.466;2022-10-26T02:20:57;3.88;;;1.98;;
25972;SDS011;13765;51.166;4.466;2022-10-26T02:23:29;5.60;;;1.98;;
25972;SDS011;13765;51.166;4.466;2022-10-26T02:26:04;4.93;;;1.63;;
25972;SDS011;13765;51.166;4.466;2022-10-26T02:28:34;5.32;;;2.25;;
25972;SDS011;13765;51.166;4.466;2022-10-26T02:31:03;7.43;;;1.98;;
25972;SDS011;13765;51.166;4.466;2022-10-26T02:33:32;8.75;;;2.20;;
25972;SDS011;13765;51.166;4.466;2022-10-26T02:36:03;5.55;;;2.47;;
25972;SDS011;13765;51.166;4.466;2022-10-26T02:38:32;13.07;;;2.38;;
25972;SDS011;13765;51.166;4.466;2022-10-26T02:40:59;8.52;;;2.65;;
25972;SDS011;13765;51.166;4.466;2022-10-26T02:43:27;4.93;;;2.13;;
25972;SDS011;13765;51.166;4.466;2022-10-26T02:46:04;6.18;;;2.13;;
25972;SDS011;13765;51.166;4.466;2022-10-26T02:48:37;5.00;;;1.88;;
25972;SDS011;13765;51.166;4.466;2022-10-26T02:53:40;5.43;;;1.70;;
25972;SDS011;13765;51.166;4.466;2022-10-26T02:56:28;6.05;;;1.88;;
25972;SDS011;13765;51.166;4.466;2022-10-26T02:59:09;6.50;;;1.95;;
25972;SDS011;13765;51.166;4.466;2022-10-26T03:01:39;8.25;;;2.17;;
25972;SDS011;13765;51.166;4.466;2022-10-26T03:04:08;5.13;;;1.65;;
25972;SDS011;13765;51.166;4.466;2022-10-26T03:06:36;5.90;;;1.70;;
25972;SDS011;13765;51.166;4.466;2022-10-26T03:09:04;9.10;;;1.95;;
25972;SDS011;13765;51.166;4.466;2022-10-26T03:11:33;7.55;;;2.10;;
25972;SDS011;13765;51.166;4.466;2022-10-26T03:13:58;4.75;;;2.00;;
25972;SDS011;13765;51.166;4.466;2022-10-26T03:16:24;5.60;;;1.88;;
25972;SDS011;13765;51.166;4.466;2022-10-26T03:18:53;5.88;;;1.90;;
25972;SDS011;13765;51.166;4.466;2022-10-26T03:21:18;6.18;;;1.83;;
25972;SDS011;13765;51.166;4.466;2022-10-26T03:23:44;6.00;;;1.52;;
25972;SDS011;13765;51.166;4.466;2022-10-26T03:26:11;4.53;;;2.05;;
25972;SDS011;13765;51.166;4.466;2022-10-26T03:28:37;11.90;;;2.30;;
25972;SDS011;13765;51.166;4.466;2022-10-26T03:31:05;7.22;;;2.15;;
25972;SDS011;13765;51.166;4.466;2022-10-26T03:33:31;12.60;;;2.17;;
25972;SDS011;13765;51.166;4.466;2022-10-26T03:35:57;8.57;;;1.95;;
25972;SDS011;13765;51.166;4.466;2022-10-26T03:38:23;6.07;;;1.88;;
25972;SDS011;13765;51.166;4.466;2022-10-26T03:40:49;11.23;;;2.10;;
25972;SDS011;13765;51.166;4.466;2022-10-26T03:43:14;9.27;;;2.33;;
25972;SDS011;13765;51.166;4.466;2022-10-26T03:45:41;6.70;;;2.42;;
25972;SDS011;13765;51.166;4.466;2022-10-26T03:48:06;7.28;;;2.33;;
25972;SDS011;13765;51.166;4.466;2022-10-26T03:50:32;6.07;;;2.22;;
25972;SDS011;13765;51.166;4.466;2022-10-26T03:53:00;10.63;;;2.42;;
25972;SDS011;13765;51.166;4.466;2022-10-26T03:55:30;6.35;;;2.10;;
25972;SDS011;13765;51.166;4.466;2022-10-26T03:57:59;2.63;;;1.48;;
25972;SDS011;13765;51.166;4.466;2022-10-26T04:00:25;5.40;;;1.63;;
25972;SDS011;13765;51.166;4.466;2022-10-26T04:02:53;3.95;;;2.00;;
25972;SDS011;13765;51.166;4.466;2022-10-26T04:05:21;7.78;;;1.85;;
25972;SDS011;13765;51.166;4.466;2022-10-26T04:07:51;7.10;;;2.35;;
25972;SDS011;13765;51.166;4.466;2022-10-26T04:10:24;8.27;;;1.80;;
25972;SDS011;13765;51.166;4.466;2022-10-26T04:12:51;7.28;;;2.30;;
25972;SDS011;13765;51.166;4.466;2022-10-26T04:15:18;10.13;;;1.75;;
25972;SDS011;13765;51.166;4.466;2022-10-26T04:17:47;4.30;;;2.00;;
25972;SDS011;13765;51.166;4.466;2022-10-26T04:20:21;7.03;;;1.70;;
25972;SDS011;13765;51.166;4.466;2022-10-26T04:22:55;5.00;;;1.63;;
25972;SDS011;13765;51.166;4.466;2022-10-26T04:25:27;5.63;;;1.55;;
25972;SDS011;13765;51.166;4.466;2022-10-26T04:27:56;9.77;;;2.55;;
25972;SDS011;13765;51.166;4.466;2022-10-26T04:30:22;7.57;;;1.65;;
25972;SDS011;13765;51.166;4.466;2022-10-26T04:32:49;7.35;;;1.98;;
25972;SDS011;13765;51.166;4.466;2022-10-26T04:35:17;7.60;;;2.33;;
25972;SDS011;13765;51.166;4.466;2022-10-26T04:37:43;2.22;;;1.30;;
25972;SDS011;13765;51.166;4.466;2022-10-26T04:40:11;10.15;;;1.88;;
25972;SDS011;13765;51.166;4.466;2022-10-26T04:42:44;4.93;;;2.15;;
25972;SDS011;13765;51.166;4.466;2022-10-26T04:45:11;10.48;;;2.42;;
25972;SDS011;13765;51.166;4.466;2022-10-26T04:47:38;6.65;;;1.83;;
25972;SDS011;13765;51.166;4.466;2022-10-26T04:50:07;4.45;;;1.83;;
25972;SDS011;13765;51.166;4.466;2022-10-26T04:52:35;5.63;;;1.92;;
25972;SDS011;13765;51.166;4.466;2022-10-26T04:55:00;9.00;;;2.15;;
25972;SDS011;13765;51.166;4.466;2022-10-26T04:57:30;5.65;;;1.77;;
25972;SDS011;13765;51.166;4.466;2022-10-26T04:59:59;6.18;;;2.08;;
25972;SDS011;13765;51.166;4.466;2022-10-26T05:02:28;5.78;;;1.40;;
25972;SDS011;13765;51.166;4.466;2022-10-26T05:04:56;3.15;;;2.00;;
25972;SDS011;13765;51.166;4.466;2022-10-26T05:09:52;3.38;;;1.90;;
25972;SDS011;13765;51.166;4.466;2022-10-26T05:12:18;1.95;;;0.68;;
25972;SDS011;13765;51.166;4.466;2022-10-26T05:14:44;5.97;;;1.60;;
25972;SDS011;13765;51.166;4.466;2022-10-26T05:17:10;7.38;;;1.95;;
25972;SDS011;13765;51.166;4.466;2022-10-26T05:19:39;7.15;;;1.42;;
25972;SDS011;13765;51.166;4.466;2022-10-26T05:22:05;5.10;;;1.13;;
25972;SDS011;13765;51.166;4.466;2022-10-26T05:24:31;5.63;;;1.75;;
25972;SDS011;13765;51.166;4.466;2022-10-26T05:26:57;5.75;;;1.48;;
25972;SDS011;13765;51.166;4.466;2022-10-26T05:29:23;4.22;;;1.55;;
25972;SDS011;13765;51.166;4.466;2022-10-26T05:31:48;2.20;;;1.60;;
25972;SDS011;13765;51.166;4.466;2022-10-26T05:34:17;4.93;;;1.20;;
25972;SDS011;13765;51.166;4.466;2022-10-26T05:36:43;4.68;;;1.90;;
25972;SDS011;13765;51.166;4.466;2022-10-26T05:39:11;5.60;;;1.42;;
25972;SDS011;13765;51.166;4.466;2022-10-26T05:41:39;7.22;;;1.80;;
25972;SDS011;13765;51.166;4.466;2022-10-26T05:44:08;9.32;;;1.80;;
25972;SDS011;13765;51.166;4.466;2022-10-26T05:46:34;3.78;;;1.25;;
25972;SDS011;13765;51.166;4.466;2022-10-26T05:49:02;4.78;;;1.42;;
25972;SDS011;13765;51.166;4.466;2022-10-26T05:51:31;12.55;;;2.00;;
25972;SDS011;13765;51.166;4.466;2022-10-26T05:54:01;4.72;;;1.42;;
25972;SDS011;13765;51.166;4.466;2022-10-26T05:56:37;7.07;;;1.85;;
25972;SDS011;13765;51.166;4.466;2022-10-26T05:59:14;6.53;;;1.90;;
25972;SDS011;13765;51.166;4.466;2022-10-26T06:04:39;3.42;;;1.55;;
25972;SDS011;13765;51.166;4.466;2022-10-26T06:07:10;8.07;;;1.15;;
25972;SDS011;13765;51.166;4.466;2022-10-26T06:09:38;6.82;;;2.75;;
25972;SDS011;13765;51.166;4.466;2022-10-26T06:12:05;7.43;;;2.83;;
25972;SDS011;13765;51.166;4.466;2022-10-26T06:14:33;8.10;;;1.50;;
25972;SDS011;13765;51.166;4.466;2022-10-26T06:17:03;14.63;;;2.17;;
25972;SDS011;13765;51.166;4.466;2022-10-26T06:22:10;6.63;;;1.85;;
25972;SDS011;13765;51.166;4.466;2022-10-26T06:24:50;6.65;;;2.38;;
25972;SDS011;13765;51.166;4.466;2022-10-26T06:30:28;7.78;;;2.15;;
25972;SDS011;13765;51.166;4.466;2022-10-26T06:32:54;3.00;;;1.73;;
25972;SDS011;13765;51.166;4.466;2022-10-26T06:37:59;10.65;;;1.98;;
25972;SDS011;13765;51.166;4.466;2022-10-26T06:40:29;7.47;;;3.55;;
25972;SDS011;13765;51.166;4.466;2022-10-26T06:42:57;2.92;;;1.35;;
25972;SDS011;13765;51.166;4.466;2022-10-26T06:45:23;4.22;;;1.67;;
25972;SDS011;13765;51.166;4.466;2022-10-26T06:53:14;12.80;;;2.10;;
25972;SDS011;13765;51.166;4.466;2022-10-26T06:55:43;6.78;;;1.88;;
25972;SDS011;13765;51.166;4.466;2022-10-26T06:58:22;10.48;;;2.42;;
25972;SDS011;13765;51.166;4.466;2022-10-26T07:00:49;6.18;;;2.05;;
25972;SDS011;13765;51.166;4.466;2022-10-26T07:03:17;7.85;;;1.70;;
25972;SDS011;13765;51.166;4.466;2022-10-26T07:05:43;5.93;;;1.80;;
25972;SDS011;13765;51.166;4.466;2022-10-26T07:08:09;10.02;;;3.25;;
25972;SDS011;13765;51.166;4.466;2022-10-26T07:10:36;8.38;;;2.20;;
25972;SDS011;13765;51.166;4.466;2022-10-26T07:13:05;8.25;;;1.83;;
25972;SDS011;13765;51.166;4.466;2022-10-26T07:15:33;4.70;;;1.80;;
25972;SDS011;13765;51.166;4.466;2022-10-26T07:18:00;6.10;;;2.03;;
25972;SDS011;13765;51.166;4.466;2022-10-26T07:20:30;6.78;;;1.80;;
25972;SDS011;13765;51.166;4.466;2022-10-26T07:22:56;8.60;;;2.60;;
25972;SDS011;13765;51.166;4.466;2022-10-26T07:25:26;9.38;;;2.45;;
25972;SDS011;13765;51.166;4.466;2022-10-26T07:27:55;9.52;;;1.70;;
25972;SDS011;13765;51.166;4.466;2022-10-26T07:30:22;13.77;;;2.60;;
25972;SDS011;13765;51.166;4.466;2022-10-26T07:32:48;7.22;;;1.77;;
25972;SDS011;13765;51.166;4.466;2022-10-26T07:35:22;5.80;;;2.40;;
25972;SDS011;13765;51.166;4.466;2022-10-26T07:37:47;14.32;;;3.38;;
25972;SDS011;13765;51.166;4.466;2022-10-26T07:40:13;9.68;;;2.90;;
25972;SDS011;13765;51.166;4.466;2022-10-26T07:42:41;4.55;;;1.63;;
25972;SDS011;13765;51.166;4.466;2022-10-26T07:45:09;7.95;;;2.17;;
25972;SDS011;13765;51.166;4.466;2022-10-26T07:47:35;8.15;;;2.33;;
25972;SDS011;13765;51.166;4.466;2022-10-26T07:50:00;3.15;;;1.67;;
25972;SDS011;13765;51.166;4.466;2022-10-26T07:52:29;10.27;;;1.92;;
25972;SDS011;13765;51.166;4.466;2022-10-26T07:54:55;7.55;;;2.10;;
25972;SDS011;13765;51.166;4.466;2022-10-26T07:57:21;3.05;;;1.42;;
25972;SDS011;13765;51.166;4.466;2022-10-26T07:59:47;3.90;;;1.50;;
25972;SDS011;13765;51.166;4.466;2022-10-26T08:02:13;10.80;;;2.70;;
25972;SDS011;13765;51.166;4.466;2022-10-26T08:04:39;7.07;;;1.70;;
25972;SDS011;13765;51.166;4.466;2022-10-26T08:07:05;4.13;;;1.33;;
25972;SDS011;13765;51.166;4.466;2022-10-26T08:09:32;7.13;;;1.95;;
25972;SDS011;13765;51.166;4.466;2022-10-26T08:12:01;7.18;;;2.40;;
25972;SDS011;13765;51.166;4.466;2022-10-26T08:14:26;4.00;;;1.58;;
25972;SDS011;13765;51.166;4.466;2022-10-26T08:16:52;2.72;;;1.30;;
25972;SDS011;13765;51.166;4.466;2022-10-26T08:19:17;5.35;;;1.75;;
25972;SDS011;13765;51.166;4.466;2022-10-26T08:21:44;5.07;;;2.08;;
25972;SDS011;13765;51.166;4.466;2022-10-26T08:24:09;5.13;;;1.90;;
25972;SDS011;13765;51.166;4.466;2022-10-26T08:26:35;3.83;;;1.55;;
25972;SDS011;13765;51.166;4.466;2022-10-26T08:29:02;5.57;;;1.88;;
25972;SDS011;13765;51.166;4.466;2022-10-26T08:31:30;7.82;;;2.03;;
25972;SDS011;13765;51.166;4.466;2022-10-26T08:33:58;10.55;;;2.20;;
25972;SDS011;13765;51.166;4.466;2022-10-26T08:36:24;5.38;;;1.35;;
25972;SDS011;13765;51.166;4.466;2022-10-26T08:38:52;4.93;;;2.05;;
25972;SDS011;13765;51.166;4.466;2022-10-26T08:41:23;7.95;;;2.58;;
25972;SDS011;13765;51.166;4.466;2022-10-26T08:44:10;4.13;;;1.80;;
25972;SDS011;13765;51.166;4.466;2022-10-26T08:46:52;3.42;;;1.70;;
25972;SDS011;13765;51.166;4.466;2022-10-26T08:49:23;8.80;;;2.30;;
25972;SDS011;13765;51.166;4.466;2022-10-26T08:51:55;6.22;;;1.75;;
25972;SDS011;13765;51.166;4.466;2022-10-26T08:54:27;2.97;;;1.52;;
25972;SDS011;13765;51.166;4.466;2022-10-26T08:57:12;10.00;;;2.03;;
25972;SDS011;13765;51.166;4.466;2022-10-26T08:59:51;3.08;;;1.30;;
25972;SDS011;13765;51.166;4.466;2022-10-26T09:02:24;6.55;;;1.95;;
25972;SDS011;13765;51.166;4.466;2022-10-26T09:04:51;8.30;;;1.63;;
25972;SDS011;13765;51.166;4.466;2022-10-26T09:12:43;6.80;;;1.42;;
25972;SDS011;13765;51.166;4.466;2022-10-26T09:15:31;2.17;;;1.50;;
25972;SDS011;13765;51.166;4.466;2022-10-26T09:21:15;3.30;;;1.20;;
25972;SDS011;13765;51.166;4.466;2022-10-26T09:24:00;5.30;;;1.60;;
25972;SDS011;13765;51.166;4.466;2022-10-26T09:29:11;5.25;;;2.30;;
25972;SDS011;13765;51.166;4.466;2022-10-26T09:31:39;9.02;;;2.05;;
25972;SDS011;13765;51.166;4.466;2022-10-26T09:34:28;5.53;;;1.63;;
25972;SDS011;13765;51.166;4.466;2022-10-26T09:36:56;3.22;;;1.35;;
25972;SDS011;13765;51.166;4.466;2022-10-26T09:39:28;6.88;;;1.90;;
25972;SDS011;13765;51.166;4.466;2022-10-26T09:42:04;6.60;;;2.00;;
25972;SDS011;13765;51.166;4.466;2022-10-26T09:44:44;9.75;;;1.73;;
25972;SDS011;13765;51.166;4.466;2022-10-26T09:47:26;13.50;;;2.92;;
25972;SDS011;13765;51.166;4.466;2022-10-26T09:50:06;2.20;;;1.00;;
25972;SDS011;13765;51.166;4.466;2022-10-26T09:52:38;6.60;;;1.58;;
25972;SDS011;13765;51.166;4.466;2022-10-26T09:55:03;4.60;;;2.10;;
25972;SDS011;13765;51.166;4.466;2022-10-26T09:57:34;9.60;;;2.30;;
25972;SDS011;13765;51.166;4.466;2022-10-26T10:00:00;5.28;;;1.88;;
25972;SDS011;13765;51.166;4.466;2022-10-26T10:08:08;8.55;;;1.75;;
25972;SDS011;13765;51.166;4.466;2022-10-26T10:10:38;8.18;;;1.95;;
25972;SDS011;13765;51.166;4.466;2022-10-26T10:13:23;4.25;;;1.35;;
25972;SDS011;13765;51.166;4.466;2022-10-26T10:15:52;5.00;;;1.73;;
25972;SDS011;13765;51.166;4.466;2022-10-26T10:18:21;3.38;;;1.20;;
25972;SDS011;13765;51.166;4.466;2022-10-26T10:20:51;5.03;;;1.67;;
25972;SDS011;13765;51.166;4.466;2022-10-26T10:23:26;3.50;;;1.42;;
25972;SDS011;13765;51.166;4.466;2022-10-26T10:26:18;5.63;;;1.63;;
25972;SDS011;13765;51.166;4.466;2022-10-26T10:28:54;6.85;;;1.73;;
25972;SDS011;13765;51.166;4.466;2022-10-26T10:33:57;2.53;;;1.08;;
25972;SDS011;13765;51.166;4.466;2022-10-26T10:36:25;5.45;;;1.45;;
25972;SDS011;13765;51.166;4.466;2022-10-26T10:38:54;8.77;;;1.58;;
25972;SDS011;13765;51.166;4.466;2022-10-26T10:44:32;3.17;;;1.60;;
25972;SDS011;13765;51.166;4.466;2022-10-26T10:46:41;2.35;;;1.13;;
25972;SDS011;13765;51.166;4.466;2022-10-26T10:49:16;3.47;;;0.95;;
25972;SDS011;13765;51.166;4.466;2022-10-26T10:51:45;7.80;;;1.67;;
25972;SDS011;13765;51.166;4.466;2022-10-26T10:54:18;5.93;;;1.70;;
25972;SDS011;13765;51.166;4.466;2022-10-26T10:56:52;3.53;;;1.35;;
25972;SDS011;13765;51.166;4.466;2022-10-26T10:59:27;5.73;;;1.63;;
25972;SDS011;13765;51.166;4.466;2022-10-26T11:07:26;3.85;;;1.17;;
25972;SDS011;13765;51.166;4.466;2022-10-26T11:09:54;8.27;;;1.23;;
25972;SDS011;13765;51.166;4.466;2022-10-26T11:12:32;7.60;;;1.48;;
25972;SDS011;13765;51.166;4.466;2022-10-26T11:15:06;1.95;;;1.17;;
25972;SDS011;13765;51.166;4.466;2022-10-26T11:18:25;5.80;;;1.70;;
25972;SDS011;13765;51.166;4.466;2022-10-26T11:20:29;6.70;;;1.52;;
25972;SDS011;13765;51.166;4.466;2022-10-26T11:22:59;9.32;;;1.85;;
25972;SDS011;13765;51.166;4.466;2022-10-26T11:25:56;3.80;;;1.10;;
25972;SDS011;13765;51.166;4.466;2022-10-26T11:31:22;7.35;;;1.38;;
25972;SDS011;13765;51.166;4.466;2022-10-26T11:34:20;2.33;;;1.40;;
25972;SDS011;13765;51.166;4.466;2022-10-26T11:37:08;4.57;;;1.00;;
25972;SDS011;13765;51.166;4.466;2022-10-26T11:39:44;3.90;;;1.52;;
25972;SDS011;13765;51.166;4.466;2022-10-26T11:42:19;2.67;;;1.42;;
25972;SDS011;13765;51.166;4.466;2022-10-26T11:45:00;2.05;;;0.80;;
25972;SDS011;13765;51.166;4.466;2022-10-26T11:47:29;4.45;;;1.00;;
25972;SDS011;13765;51.166;4.466;2022-10-26T11:55:26;6.93;;;1.30;;
25972;SDS011;13765;51.166;4.466;2022-10-26T11:57:56;3.00;;;1.15;;
25972;SDS011;13765;51.166;4.466;2022-10-26T12:00:22;6.57;;;1.20;;
25972;SDS011;13765;51.166;4.466;2022-10-26T12:03:09;4.75;;;1.20;;
25972;SDS011;13765;51.166;4.466;2022-10-26T12:08:23;2.45;;;0.75;;
25972;SDS011;13765;51.166;4.466;2022-10-26T12:14:10;2.92;;;1.25;;
25972;SDS011;13765;51.166;4.466;2022-10-26T12:19:44;5.18;;;0.85;;
25972;SDS011;13765;51.166;4.466;2022-10-26T12:22:35;5.50;;;1.13;;
25972;SDS011;13765;51.166;4.466;2022-10-26T12:25:17;3.10;;;1.67;;
25972;SDS011;13765;51.166;4.466;2022-10-26T12:27:49;3.78;;;1.20;;
25972;SDS011;13765;51.166;4.466;2022-10-26T12:37:56;5.20;;;1.05;;
25972;SDS011;13765;51.166;4.466;2022-10-26T12:45:39;9.68;;;1.50;;
25972;SDS011;13765;51.166;4.466;2022-10-26T12:48:51;5.18;;;1.13;;
25972;SDS011;13765;51.166;4.466;2022-10-26T12:54:04;5.38;;;1.17;;
25972;SDS011;13765;51.166;4.466;2022-10-26T13:07:59;4.45;;;1.10;;
25972;SDS011;13765;51.166;4.466;2022-10-26T13:10:37;10.95;;;1.65;;
25972;SDS011;13765;51.166;4.466;2022-10-26T13:13:20;2.33;;;0.98;;
25972;SDS011;13765;51.166;4.466;2022-10-26T13:15:53;3.47;;;0.82;;
25972;SDS011;13765;51.166;4.466;2022-10-26T13:18:20;4.28;;;1.13;;
25972;SDS011;13765;51.166;4.466;2022-10-26T13:23:41;3.33;;;1.42;;
25972;SDS011;13765;51.166;4.466;2022-10-26T13:26:32;6.43;;;1.35;;
25972;SDS011;13765;51.166;4.466;2022-10-26T13:29:30;1.45;;;0.73;;
25972;SDS011;13765;51.166;4.466;2022-10-26T13:31:56;8.10;;;2.03;;
25972;SDS011;13765;51.166;4.466;2022-10-26T13:34:27;5.60;;;1.02;;
25972;SDS011;13765;51.166;4.466;2022-10-26T13:37:17;5.72;;;1.60;;
25972;SDS011;13765;51.166;4.466;2022-10-26T13:39:50;4.05;;;1.15;;
25972;SDS011;13765;51.166;4.466;2022-10-26T13:42:20;3.28;;;1.15;;
25972;SDS011;13765;51.166;4.466;2022-10-26T13:45:05;4.25;;;1.13;;
25972;SDS011;13765;51.166;4.466;2022-10-26T13:47:42;6.57;;;1.30;;
25972;SDS011;13765;51.166;4.466;2022-10-26T13:50:19;6.40;;;1.58;;
25972;SDS011;13765;51.166;4.466;2022-10-26T13:52:54;10.32;;;1.60;;
25972;SDS011;13765;51.166;4.466;2022-10-26T13:55:49;5.68;;;1.63;;
25972;SDS011;13765;51.166;4.466;2022-10-26T13:58:27;6.63;;;2.08;;
25972;SDS011;13765;51.166;4.466;2022-10-26T14:01:37;5.55;;;1.10;;
25972;SDS011;13765;51.166;4.466;2022-10-26T14:03:50;1.25;;;0.73;;
25972;SDS011;13765;51.166;4.466;2022-10-26T14:08:51;5.07;;;0.73;;
25972;SDS011;13765;51.166;4.466;2022-10-26T14:11:20;3.38;;;1.17;;
25972;SDS011;13765;51.166;4.466;2022-10-26T14:13:56;2.72;;;1.13;;
25972;SDS011;13765;51.166;4.466;2022-10-26T14:16:22;6.28;;;1.27;;
25972;SDS011;13765;51.166;4.466;2022-10-26T14:18:52;2.92;;;1.05;;
25972;SDS011;13765;51.166;4.466;2022-10-26T14:21:21;3.85;;;1.13;;
25972;SDS011;13765;51.166;4.466;2022-10-26T14:23:57;7.90;;;1.50;;
25972;SDS011;13765;51.166;4.466;2022-10-26T14:28:56;5.93;;;1.25;;
25972;SDS011;13765;51.166;4.466;2022-10-26T14:31:26;3.33;;;1.25;;
25972;SDS011;13765;51.166;4.466;2022-10-26T14:33:54;3.15;;;0.80;;
25972;SDS011;13765;51.166;4.466;2022-10-26T14:36:28;4.80;;;0.95;;
25972;SDS011;13765;51.166;4.466;2022-10-26T14:39:50;2.42;;;0.90;;
25972;SDS011;13765;51.166;4.466;2022-10-26T14:42:00;4.93;;;1.13;;
25972;SDS011;13765;51.166;4.466;2022-10-26T14:44:28;5.63;;;1.20;;
25972;SDS011;13765;51.166;4.466;2022-10-26T14:46:54;1.25;;;0.90;;
25972;SDS011;13765;51.166;4.466;2022-10-26T14:49:21;4.55;;;0.68;;
25972;SDS011;13765;51.166;4.466;2022-10-26T14:51:57;8.55;;;1.23;;
25972;SDS011;13765;51.166;4.466;2022-10-26T14:54:27;1.65;;;0.88;;
25972;SDS011;13765;51.166;4.466;2022-10-26T14:56:54;5.35;;;1.00;;
25972;SDS011;13765;51.166;4.466;2022-10-26T15:01:55;2.38;;;0.65;;
25972;SDS011;13765;51.166;4.466;2022-10-26T15:04:40;3.53;;;0.82;;
25972;SDS011;13765;51.166;4.466;2022-10-26T15:07:20;4.15;;;1.55;;
25972;SDS011;13765;51.166;4.466;2022-10-26T15:09:49;9.00;;;1.70;;
25972;SDS011;13765;51.166;4.466;2022-10-26T15:12:27;4.55;;;0.75;;
25972;SDS011;13765;51.166;4.466;2022-10-26T15:17:48;11.30;;;2.28;;
25972;SDS011;13765;51.166;4.466;2022-10-26T15:20:15;5.65;;;0.90;;
25972;SDS011;13765;51.166;4.466;2022-10-26T15:22:48;4.88;;;1.20;;
25972;SDS011;13765;51.166;4.466;2022-10-26T15:25:21;1.23;;;1.00;;
25972;SDS011;13765;51.166;4.466;2022-10-26T15:28:07;6.07;;;1.42;;
25972;SDS011;13765;51.166;4.466;2022-10-26T15:30:35;6.13;;;1.60;;
25972;SDS011;13765;51.166;4.466;2022-10-26T15:33:09;7.88;;;1.70;;
25972;SDS011;13765;51.166;4.466;2022-10-26T15:35:50;4.88;;;0.75;;
25972;SDS011;13765;51.166;4.466;2022-10-26T15:38:49;2.97;;;0.80;;
25972;SDS011;13765;51.166;4.466;2022-10-26T15:41:25;2.75;;;1.10;;
25972;SDS011;13765;51.166;4.466;2022-10-26T15:43:57;1.63;;;0.60;;
25972;SDS011;13765;51.166;4.466;2022-10-26T15:46:28;3.25;;;1.25;;
25972;SDS011;13765;51.166;4.466;2022-10-26T15:48:57;4.20;;;1.15;;
25972;SDS011;13765;51.166;4.466;2022-10-26T15:51:25;6.65;;;1.15;;
25972;SDS011;13765;51.166;4.466;2022-10-26T15:53:54;7.30;;;1.05;;
25972;SDS011;13765;51.166;4.466;2022-10-26T15:56:24;4.82;;;1.10;;
25972;SDS011;13765;51.166;4.466;2022-10-26T15:58:51;4.65;;;1.17;;
25972;SDS011;13765;51.166;4.466;2022-10-26T16:01:21;6.57;;;1.30;;
25972;SDS011;13765;51.166;4.466;2022-10-26T16:03:51;4.78;;;1.52;;
25972;SDS011;13765;51.166;4.466;2022-10-26T16:06:30;6.30;;;1.10;;
25972;SDS011;13765;51.166;4.466;2022-10-26T16:09:02;6.13;;;1.00;;
25972;SDS011;13765;51.166;4.466;2022-10-26T16:11:32;1.17;;;0.75;;
25972;SDS011;13765;51.166;4.466;2022-10-26T16:14:01;2.28;;;0.90;;
25972;SDS011;13765;51.166;4.466;2022-10-26T16:16:26;4.75;;;1.10;;
25972;SDS011;13765;51.166;4.466;2022-10-26T16:18:53;5.43;;;1.02;;
25972;SDS011;13765;51.166;4.466;2022-10-26T16:21:20;4.28;;;0.95;;
25972;SDS011;13765;51.166;4.466;2022-10-26T16:23:50;4.72;;;1.20;;
25972;SDS011;13765;51.166;4.466;2022-10-26T16:26:18;5.38;;;1.38;;
25972;SDS011;13765;51.166;4.466;2022-10-26T16:28:45;7.72;;;1.63;;
25972;SDS011;13765;51.166;4.466;2022-10-26T16:31:13;8.60;;;1.50;;
25972;SDS011;13765;51.166;4.466;2022-10-26T16:33:40;4.75;;;1.55;;
25972;SDS011;13765;51.166;4.466;2022-10-26T16:36:14;4.75;;;1.52;;
25972;SDS011;13765;51.166;4.466;2022-10-26T16:38:40;4.00;;;1.13;;
25972;SDS011;13765;51.166;4.466;2022-10-26T16:41:12;7.00;;;1.38;;
25972;SDS011;13765;51.166;4.466;2022-10-26T16:43:42;1.35;;;0.98;;
25972;SDS011;13765;51.166;4.466;2022-10-26T16:48:37;3.33;;;1.30;;
25972;SDS011;13765;51.166;4.466;2022-10-26T16:51:12;1.60;;;1.15;;
25972;SDS011;13765;51.166;4.466;2022-10-26T16:53:44;6.40;;;1.58;;
25972;SDS011;13765;51.166;4.466;2022-10-26T16:56:12;6.40;;;1.02;;
25972;SDS011;13765;51.166;4.466;2022-10-26T16:58:40;3.20;;;0.50;;
25972;SDS011;13765;51.166;4.466;2022-10-26T17:01:09;5.22;;;1.33;;
25972;SDS011;13765;51.166;4.466;2022-10-26T17:03:37;4.78;;;1.77;;
25972;SDS011;13765;51.166;4.466;2022-10-26T17:06:04;8.95;;;2.08;;
25972;SDS011;13765;51.166;4.466;2022-10-26T17:08:34;2.25;;;1.25;;
25972;SDS011;13765;51.166;4.466;2022-10-26T17:11:11;12.25;;;3.10;;
25972;SDS011;13765;51.166;4.466;2022-10-26T17:13:41;3.00;;;1.20;;
25972;SDS011;13765;51.166;4.466;2022-10-26T17:16:17;4.72;;;1.33;;
25972;SDS011;13765;51.166;4.466;2022-10-26T17:18:48;5.60;;;1.38;;
25972;SDS011;13765;51.166;4.466;2022-10-26T17:21:16;7.20;;;1.55;;
25972;SDS011;13765;51.166;4.466;2022-10-26T17:23:46;5.53;;;1.52;;
25972;SDS011;13765;51.166;4.466;2022-10-26T17:26:12;9.00;;;2.63;;
25972;SDS011;13765;51.166;4.466;2022-10-26T17:28:44;20.40;;;5.53;;